sensor_id;sensor_type;location;lat;lon;timestamp;pressure;altitude;pressure_sealevel;temperature;humidity
56944;BME280;42848;42.524;12.052;2023-04-27T00:00:27;96647.84;;;12.80;76.19
56944;BME280;42848;42.524;12.052;2023-04-27T00:02:53;96645.13;;;12.80;73.76
56944;BME280;42848;42.524;12.052;2023-04-27T00:05:18;96646.03;;;12.97;72.44
56944;BME280;42848;42.524;12.052;2023-04-27T00:07:45;96645.69;;;12.98;74.43
56944;BME280;42848;42.524;12.052;2023-04-27T00:10:10;96645.38;;;13.00;73.03
56944;BME280;42848;42.524;12.052;2023-04-27T00:12:37;96643.97;;;12.81;73.59
56944;BME280;42848;42.524;12.052;2023-04-27T00:15:04;96647.84;;;12.80;76.14
56944;BME280;42848;42.524;12.052;2023-04-27T00:17:30;96635.84;;;12.94;68.16
56944;BME280;42848;42.524;12.052;2023-04-27T00:19:56;96639.84;;;12.63;68.80
56944;BME280;42848;42.524;12.052;2023-04-27T00:22:22;96636.09;;;12.35;71.16
56944;BME280;42848;42.524;12.052;2023-04-27T00:24:47;96632.22;;;12.69;71.00
56944;BME280;42848;42.524;12.052;2023-04-27T00:27:13;96640.31;;;12.77;69.78
56944;BME280;42848;42.524;12.052;2023-04-27T00:29:39;96638.75;;;12.89;69.13
56944;BME280;42848;42.524;12.052;2023-04-27T00:32:09;96645.34;;;12.88;77.68
56944;BME280;42848;42.524;12.052;2023-04-27T00:34:34;96635.81;;;12.81;79.34
56944;BME280;42848;42.524;12.052;2023-04-27T00:37:00;96640.81;;;12.59;81.14
56944;BME280;42848;42.524;12.052;2023-04-27T00:39:26;96635.31;;;12.79;79.56
56944;BME280;42848;42.524;12.052;2023-04-27T00:41:52;96637.91;;;12.64;79.87
56944;BME280;42848;42.524;12.052;2023-04-27T00:44:25;96640.97;;;12.41;81.68
56944;BME280;42848;42.524;12.052;2023-04-27T00:46:51;96630.47;;;12.52;80.86
56944;BME280;42848;42.524;12.052;2023-04-27T00:49:18;96647.75;;;12.35;78.63
56944;BME280;42848;42.524;12.052;2023-04-27T00:51:44;96648.69;;;12.18;78.72
56944;BME280;42848;42.524;12.052;2023-04-27T00:54:10;96641.41;;;12.64;75.39
56944;BME280;42848;42.524;12.052;2023-04-27T00:56:36;96640.28;;;12.65;75.10
56944;BME280;42848;42.524;12.052;2023-04-27T00:59:02;96646.56;;;12.45;79.21
56944;BME280;42848;42.524;12.052;2023-04-27T01:01:28;96632.09;;;12.32;77.08
56944;BME280;42848;42.524;12.052;2023-04-27T01:03:55;96629.59;;;12.27;77.71
56944;BME280;42848;42.524;12.052;2023-04-27T01:06:20;96629.81;;;12.55;78.17
56944;BME280;42848;42.524;12.052;2023-04-27T01:08:46;96623.00;;;12.61;79.92
56944;BME280;42848;42.524;12.052;2023-04-27T01:11:12;96626.72;;;12.23;80.75
56944;BME280;42848;42.524;12.052;2023-04-27T01:13:37;96633.03;;;12.36;80.58
56944;BME280;42848;42.524;12.052;2023-04-27T01:16:03;96626.41;;;12.58;80.72
56944;BME280;42848;42.524;12.052;2023-04-27T01:18:29;96627.28;;;12.50;82.35
56944;BME280;42848;42.524;12.052;2023-04-27T01:20:55;96623.13;;;12.32;83.41
56944;BME280;42848;42.524;12.052;2023-04-27T01:23:20;96631.69;;;12.21;84.31
56944;BME280;42848;42.524;12.052;2023-04-27T01:25:46;96629.56;;;12.48;82.16
56944;BME280;42848;42.524;12.052;2023-04-27T01:28:12;96633.16;;;12.40;83.57
56944;BME280;42848;42.524;12.052;2023-04-27T01:30:38;96631.69;;;12.21;85.80
56944;BME280;42848;42.524;12.052;2023-04-27T01:33:03;96627.44;;;12.33;85.88
56944;BME280;42848;42.524;12.052;2023-04-27T01:35:29;96646.78;;;12.19;87.01
56944;BME280;42848;42.524;12.052;2023-04-27T01:37:56;96646.81;;;12.52;85.31
56944;BME280;42848;42.524;12.052;2023-04-27T01:40:22;96648.81;;;12.43;86.15
56944;BME280;42848;42.524;12.052;2023-04-27T01:42:47;96649.63;;;12.22;88.20
56944;BME280;42848;42.524;12.052;2023-04-27T01:45:13;96641.31;;;12.40;87.38
56944;BME280;42848;42.524;12.052;2023-04-27T01:47:39;96649.47;;;12.40;87.40
56944;BME280;42848;42.524;12.052;2023-04-27T01:50:05;96648.81;;;12.43;86.82
56944;BME280;42848;42.524;12.052;2023-04-27T01:52:31;96654.00;;;12.36;86.84
56944;BME280;42848;42.524;12.052;2023-04-27T01:54:56;96641.38;;;12.10;88.80
56944;BME280;42848;42.524;12.052;2023-04-27T01:57:22;96646.69;;;12.48;87.39
56944;BME280;42848;42.524;12.052;2023-04-27T01:59:48;96645.09;;;12.47;87.76
56944;BME280;42848;42.524;12.052;2023-04-27T02:02:14;96641.84;;;12.54;87.59
56944;BME280;42848;42.524;12.052;2023-04-27T02:04:39;96649.22;;;12.53;87.23
56944;BME280;42848;42.524;12.052;2023-04-27T02:07:07;96650.66;;;12.51;88.68
56944;BME280;42848;42.524;12.052;2023-04-27T02:09:33;96646.97;;;12.35;90.33
56944;BME280;42848;42.524;12.052;2023-04-27T02:11:59;96644.16;;;12.43;90.39
56944;BME280;42848;42.524;12.052;2023-04-27T02:14:24;96651.19;;;12.23;92.83
56944;BME280;42848;42.524;12.052;2023-04-27T02:16:50;96639.91;;;12.13;92.19
56944;BME280;42848;42.524;12.052;2023-04-27T02:19:16;96646.56;;;12.03;96.46
56944;BME280;42848;42.524;12.052;2023-04-27T02:21:41;96647.34;;;12.24;94.82
56944;BME280;42848;42.524;12.052;2023-04-27T02:24:08;96648.81;;;12.43;93.96
56944;BME280;42848;42.524;12.052;2023-04-27T02:26:34;96642.06;;;12.28;96.39
56944;BME280;42848;42.524;12.052;2023-04-27T02:29:00;96636.63;;;12.07;99.00
56944;BME280;42848;42.524;12.052;2023-04-27T02:31:26;96637.53;;;12.11;99.49
56944;BME280;42848;42.524;12.052;2023-04-27T02:33:52;96645.75;;;12.23;97.88
56944;BME280;42848;42.524;12.052;2023-04-27T02:36:18;96640.31;;;12.23;98.04
56944;BME280;42848;42.524;12.052;2023-04-27T02:38:43;96634.75;;;11.99;100.00
56944;BME280;42848;42.524;12.052;2023-04-27T02:41:09;96644.44;;;12.30;99.91
56944;BME280;42848;42.524;12.052;2023-04-27T02:43:35;96641.13;;;12.03;100.00
56944;BME280;42848;42.524;12.052;2023-04-27T02:46:02;96638.09;;;12.26;100.00
56944;BME280;42848;42.524;12.052;2023-04-27T02:48:29;96646.16;;;12.13;100.00
56944;BME280;42848;42.524;12.052;2023-04-27T02:50:55;96642.19;;;12.32;100.00
56944;BME280;42848;42.524;12.052;2023-04-27T02:53:21;96647.69;;;12.02;100.00
56944;BME280;42848;42.524;12.052;2023-04-27T02:55:48;96643.78;;;11.91;100.00
56944;BME280;42848;42.524;12.052;2023-04-27T02:58:14;96648.47;;;11.82;100.00
56944;BME280;42848;42.524;12.052;2023-04-27T03:00:41;96649.66;;;11.93;100.00
56944;BME280;42848;42.524;12.052;2023-04-27T03:03:07;96644.56;;;11.91;100.00
56944;BME280;42848;42.524;12.052;2023-04-27T03:05:36;96640.19;;;11.99;100.00
56944;BME280;42848;42.524;12.052;2023-04-27T03:08:02;96636.06;;;11.93;100.00
56944;BME280;42848;42.524;12.052;2023-04-27T03:10:28;96638.72;;;11.81;100.00
56944;BME280;42848;42.524;12.052;2023-04-27T03:12:54;96652.50;;;11.96;100.00
56944;BME280;42848;42.524;12.052;2023-04-27T03:15:20;96662.53;;;11.84;100.00
56944;BME280;42848;42.524;12.052;2023-04-27T03:17:45;96663.44;;;11.58;100.00
56944;BME280;42848;42.524;12.052;2023-04-27T03:20:11;96662.34;;;11.51;100.00
56944;BME280;42848;42.524;12.052;2023-04-27T03:22:37;96671.13;;;11.56;100.00
56944;BME280;42848;42.524;12.052;2023-04-27T03:25:03;96659.34;;;11.73;100.00
56944;BME280;42848;42.524;12.052;2023-04-27T03:27:29;96652.22;;;11.98;100.00
56944;BME280;42848;42.524;12.052;2023-04-27T03:29:55;96649.03;;;12.17;100.00
56944;BME280;42848;42.524;12.052;2023-04-27T03:32:21;96655.31;;;11.79;100.00
56944;BME280;42848;42.524;12.052;2023-04-27T03:34:47;96653.63;;;11.95;100.00
56944;BME280;42848;42.524;12.052;2023-04-27T03:37:12;96644.03;;;11.98;100.00
56944;BME280;42848;42.524;12.052;2023-04-27T03:39:38;96650.22;;;12.07;100.00
56944;BME280;42848;42.524;12.052;2023-04-27T03:42:04;96657.53;;;11.86;100.00
56944;BME280;42848;42.524;12.052;2023-04-27T03:44:30;96648.47;;;11.73;100.00
56944;BME280;42848;42.524;12.052;2023-04-27T03:47:00;96642.25;;;11.73;100.00
56944;BME280;42848;42.524;12.052;2023-04-27T03:49:26;96647.13;;;11.58;100.00
56944;BME280;42848;42.524;12.052;2023-04-27T03:51:52;96650.59;;;11.67;100.00
56944;BME280;42848;42.524;12.052;2023-04-27T03:54:17;96656.31;;;11.75;100.00
56944;BME280;42848;42.524;12.052;2023-04-27T03:56:43;96664.94;;;11.77;100.00
56944;BME280;42848;42.524;12.052;2023-04-27T03:59:09;96667.56;;;11.64;100.00
56944;BME280;42848;42.524;12.052;2023-04-27T04:01:35;96662.28;;;11.30;100.00
56944;BME280;42848;42.524;12.052;2023-04-27T04:04:01;96668.22;;;11.15;100.00
56944;BME280;42848;42.524;12.052;2023-04-27T04:06:27;96667.31;;;11.49;100.00
56944;BME280;42848;42.524;12.052;2023-04-27T04:08:53;96674.06;;;11.81;100.00
56944;BME280;42848;42.524;12.052;2023-04-27T04:11:19;96672.63;;;11.75;100.00
56944;BME280;42848;42.524;12.052;2023-04-27T04:13:45;96674.41;;;11.71;100.00
56944;BME280;42848;42.524;12.052;2023-04-27T04:16:11;96673.09;;;11.77;100.00
56944;BME280;42848;42.524;12.052;2023-04-27T04:18:38;96679.00;;;11.79;100.00
56944;BME280;42848;42.524;12.052;2023-04-27T04:21:04;96671.03;;;11.74;100.00
56944;BME280;42848;42.524;12.052;2023-04-27T04:23:30;96681.09;;;11.82;100.00
56944;BME280;42848;42.524;12.052;2023-04-27T04:25:57;96685.41;;;11.83;100.00
56944;BME280;42848;42.524;12.052;2023-04-27T04:28:23;96688.13;;;11.83;100.00
56944;BME280;42848;42.524;12.052;2023-04-27T04:30:50;96686.88;;;11.80;100.00
56944;BME280;42848;42.524;12.052;2023-04-27T04:33:16;96696.72;;;11.55;100.00
56944;BME280;42848;42.524;12.052;2023-04-27T04:35:42;96691.56;;;11.62;100.00
56944;BME280;42848;42.524;12.052;2023-04-27T04:38:09;96694.88;;;11.30;100.00
56944;BME280;42848;42.524;12.052;2023-04-27T04:40:36;96690.25;;;11.30;100.00
56944;BME280;42848;42.524;12.052;2023-04-27T04:43:03;96695.31;;;11.79;100.00
56944;BME280;42848;42.524;12.052;2023-04-27T04:45:28;96708.44;;;11.77;100.00
56944;BME280;42848;42.524;12.052;2023-04-27T04:47:54;96712.50;;;11.71;100.00
56944;BME280;42848;42.524;12.052;2023-04-27T04:50:20;96714.53;;;11.74;100.00
56944;BME280;42848;42.524;12.052;2023-04-27T04:52:46;96716.41;;;11.52;100.00
56944;BME280;42848;42.524;12.052;2023-04-27T04:55:12;96716.13;;;11.75;100.00
56944;BME280;42848;42.524;12.052;2023-04-27T04:57:38;96727.94;;;11.87;100.00
56944;BME280;42848;42.524;12.052;2023-04-27T05:00:04;96726.09;;;11.71;100.00
56944;BME280;42848;42.524;12.052;2023-04-27T05:02:35;96731.53;;;11.71;100.00
56944;BME280;42848;42.524;12.052;2023-04-27T05:05:01;96730.97;;;11.39;100.00
56944;BME280;42848;42.524;12.052;2023-04-27T05:07:26;96733.63;;;11.65;100.00
56944;BME280;42848;42.524;12.052;2023-04-27T05:09:52;96736.91;;;11.32;100.00
56944;BME280;42848;42.524;12.052;2023-04-27T05:12:17;96743.84;;;11.59;100.00
56944;BME280;42848;42.524;12.052;2023-04-27T05:14:43;96747.84;;;11.71;100.00
56944;BME280;42848;42.524;12.052;2023-04-27T05:17:09;96745.56;;;11.34;100.00
56944;BME280;42848;42.524;12.052;2023-04-27T05:19:35;96748.44;;;11.29;100.00
56944;BME280;42848;42.524;12.052;2023-04-27T05:22:00;96748.84;;;11.49;100.00
56944;BME280;42848;42.524;12.052;2023-04-27T05:24:26;96755.31;;;11.35;100.00
56944;BME280;42848;42.524;12.052;2023-04-27T05:26:52;96764.16;;;11.71;100.00
56944;BME280;42848;42.524;12.052;2023-04-27T05:29:18;96767.50;;;11.67;100.00
56944;BME280;42848;42.524;12.052;2023-04-27T05:31:44;96768.06;;;11.52;100.00
56944;BME280;42848;42.524;12.052;2023-04-27T05:34:09;96765.41;;;11.82;100.00
56944;BME280;42848;42.524;12.052;2023-04-27T05:36:35;96762.84;;;11.77;100.00
56944;BME280;42848;42.524;12.052;2023-04-27T05:39:02;96768.53;;;12.01;100.00
56944;BME280;42848;42.524;12.052;2023-04-27T05:41:31;96759.13;;;12.19;100.00
56944;BME280;42848;42.524;12.052;2023-04-27T05:43:57;96758.47;;;12.22;100.00
56944;BME280;42848;42.524;12.052;2023-04-27T05:46:23;96755.56;;;12.28;100.00
56944;BME280;42848;42.524;12.052;2023-04-27T05:48:49;96765.13;;;12.34;100.00
56944;BME280;42848;42.524;12.052;2023-04-27T05:51:15;96760.91;;;12.15;100.00
56944;BME280;42848;42.524;12.052;2023-04-27T05:53:41;96767.56;;;11.97;100.00
56944;BME280;42848;42.524;12.052;2023-04-27T05:56:07;96774.09;;;12.34;100.00
56944;BME280;42848;42.524;12.052;2023-04-27T05:58:33;96770.34;;;12.47;100.00
56944;BME280;42848;42.524;12.052;2023-04-27T06:01:00;96770.00;;;12.49;100.00
56944;BME280;42848;42.524;12.052;2023-04-27T06:03:25;96778.03;;;12.45;100.00
56944;BME280;42848;42.524;12.052;2023-04-27T06:05:59;96776.50;;;12.36;100.00
56944;BME280;42848;42.524;12.052;2023-04-27T06:08:25;96784.16;;;12.63;100.00
56944;BME280;42848;42.524;12.052;2023-04-27T06:10:52;96785.75;;;12.64;100.00
56944;BME280;42848;42.524;12.052;2023-04-27T06:13:18;96782.81;;;12.48;100.00
56944;BME280;42848;42.524;12.052;2023-04-27T06:15:45;96783.19;;;12.38;100.00
56944;BME280;42848;42.524;12.052;2023-04-27T06:18:11;96784.56;;;12.53;100.00
56944;BME280;42848;42.524;12.052;2023-04-27T06:20:37;96784.56;;;12.74;100.00
56944;BME280;42848;42.524;12.052;2023-04-27T06:23:03;96791.59;;;12.54;100.00
56944;BME280;42848;42.524;12.052;2023-04-27T06:25:28;96784.91;;;12.72;100.00
56944;BME280;42848;42.524;12.052;2023-04-27T06:27:55;96782.69;;;12.87;100.00
56944;BME280;42848;42.524;12.052;2023-04-27T06:30:21;96779.06;;;12.82;100.00
56944;BME280;42848;42.524;12.052;2023-04-27T06:32:47;96788.88;;;13.17;100.00
56944;BME280;42848;42.524;12.052;2023-04-27T06:35:13;96797.78;;;13.05;100.00
56944;BME280;42848;42.524;12.052;2023-04-27T06:37:38;96792.47;;;12.88;100.00
56944;BME280;42848;42.524;12.052;2023-04-27T06:40:07;96800.75;;;13.12;100.00
56944;BME280;42848;42.524;12.052;2023-04-27T06:42:33;96790.78;;;13.16;100.00
56944;BME280;42848;42.524;12.052;2023-04-27T06:44:59;96788.50;;;13.39;100.00
56944;BME280;42848;42.524;12.052;2023-04-27T06:47:25;96803.41;;;13.42;100.00
56944;BME280;42848;42.524;12.052;2023-04-27T06:49:51;96808.28;;;13.36;100.00
56944;BME280;42848;42.524;12.052;2023-04-27T06:52:17;96806.13;;;13.42;100.00
56944;BME280;42848;42.524;12.052;2023-04-27T06:54:43;96806.09;;;13.29;100.00
56944;BME280;42848;42.524;12.052;2023-04-27T06:57:08;96797.91;;;13.29;100.00
56944;BME280;42848;42.524;12.052;2023-04-27T06:59:34;96804.63;;;13.32;100.00
56944;BME280;42848;42.524;12.052;2023-04-27T07:02:00;96809.38;;;13.56;100.00
56944;BME280;42848;42.524;12.052;2023-04-27T07:04:26;96803.19;;;13.47;100.00
56944;BME280;42848;42.524;12.052;2023-04-27T07:06:52;96806.88;;;13.63;100.00
56944;BME280;42848;42.524;12.052;2023-04-27T07:09:17;96809.91;;;13.49;100.00
56944;BME280;42848;42.524;12.052;2023-04-27T07:11:43;96801.66;;;13.70;100.00
56944;BME280;42848;42.524;12.052;2023-04-27T07:14:09;96801.09;;;13.64;100.00
56944;BME280;42848;42.524;12.052;2023-04-27T07:16:35;96805.66;;;13.73;100.00
56944;BME280;42848;42.524;12.052;2023-04-27T07:19:00;96808.94;;;13.66;100.00
56944;BME280;42848;42.524;12.052;2023-04-27T07:21:26;96803.72;;;13.73;100.00
56944;BME280;42848;42.524;12.052;2023-04-27T07:23:53;96809.88;;;13.94;100.00
56944;BME280;42848;42.524;12.052;2023-04-27T07:26:19;96812.28;;;13.96;100.00
56944;BME280;42848;42.524;12.052;2023-04-27T07:28:45;96808.84;;;13.87;100.00
56944;BME280;42848;42.524;12.052;2023-04-27T07:31:11;96811.47;;;13.95;100.00
56944;BME280;42848;42.524;12.052;2023-04-27T07:33:37;96814.69;;;14.10;100.00
56944;BME280;42848;42.524;12.052;2023-04-27T07:36:03;96818.09;;;14.07;100.00
56944;BME280;42848;42.524;12.052;2023-04-27T07:38:29;96816.94;;;14.08;100.00
56944;BME280;42848;42.524;12.052;2023-04-27T07:40:57;96818.56;;;14.21;100.00
56944;BME280;42848;42.524;12.052;2023-04-27T07:43:23;96811.06;;;14.18;100.00
56944;BME280;42848;42.524;12.052;2023-04-27T07:45:50;96811.06;;;14.30;100.00
56944;BME280;42848;42.524;12.052;2023-04-27T07:48:16;96806.16;;;14.23;100.00
56944;BME280;42848;42.524;12.052;2023-04-27T07:50:42;96805.13;;;14.40;100.00
56944;BME280;42848;42.524;12.052;2023-04-27T07:53:08;96805.13;;;14.40;100.00
56944;BME280;42848;42.524;12.052;2023-04-27T07:55:34;96816.28;;;14.35;100.00
56944;BME280;42848;42.524;12.052;2023-04-27T07:58:01;96809.22;;;14.34;100.00
56944;BME280;42848;42.524;12.052;2023-04-27T08:00:26;96809.91;;;14.43;100.00
56944;BME280;42848;42.524;12.052;2023-04-27T08:02:53;96808.91;;;14.36;100.00
56944;BME280;42848;42.524;12.052;2023-04-27T08:05:19;96814.91;;;14.54;100.00
56944;BME280;42848;42.524;12.052;2023-04-27T08:07:45;96819.00;;;14.72;100.00
56944;BME280;42848;42.524;12.052;2023-04-27T08:10:11;96818.94;;;14.56;100.00
56944;BME280;42848;42.524;12.052;2023-04-27T08:12:37;96814.19;;;14.81;100.00
56944;BME280;42848;42.524;12.052;2023-04-27T08:15:04;96814.88;;;14.90;100.00
56944;BME280;42848;42.524;12.052;2023-04-27T08:17:30;96820.69;;;14.89;100.00
56944;BME280;42848;42.524;12.052;2023-04-27T08:19:55;96827.78;;;14.77;100.00
56944;BME280;42848;42.524;12.052;2023-04-27T08:22:21;96838.53;;;15.11;100.00
56944;BME280;42848;42.524;12.052;2023-04-27T08:24:47;96829.69;;;14.89;100.00
56944;BME280;42848;42.524;12.052;2023-04-27T08:27:12;96827.94;;;15.09;100.00
56944;BME280;42848;42.524;12.052;2023-04-27T08:29:47;96828.06;;;15.00;100.00
56944;BME280;42848;42.524;12.052;2023-04-27T08:32:13;96834.94;;;15.22;100.00
56944;BME280;42848;42.524;12.052;2023-04-27T08:34:39;96835.75;;;15.23;100.00
56944;BME280;42848;42.524;12.052;2023-04-27T08:37:06;96828.25;;;15.07;97.97
56944;BME280;42848;42.524;12.052;2023-04-27T08:39:32;96827.72;;;15.02;90.29
56944;BME280;42848;42.524;12.052;2023-04-27T08:41:58;96838.19;;;15.40;100.00
56944;BME280;42848;42.524;12.052;2023-04-27T08:44:24;96836.59;;;15.39;86.42
56944;BME280;42848;42.524;12.052;2023-04-27T08:46:50;96824.09;;;15.26;90.14
56944;BME280;42848;42.524;12.052;2023-04-27T08:49:16;96832.53;;;15.33;83.64
56944;BME280;42848;42.524;12.052;2023-04-27T08:51:42;96836.84;;;15.34;87.25
56944;BME280;42848;42.524;12.052;2023-04-27T08:54:07;96832.03;;;15.43;89.97
56944;BME280;42848;42.524;12.052;2023-04-27T08:56:34;96830.19;;;15.47;87.69
56944;BME280;42848;42.524;12.052;2023-04-27T08:59:00;96838.66;;;15.70;91.04
56944;BME280;42848;42.524;12.052;2023-04-27T09:01:29;96840.00;;;15.36;84.18
56944;BME280;42848;42.524;12.052;2023-04-27T09:04:00;96837.34;;;15.64;89.67
56944;BME280;42848;42.524;12.052;2023-04-27T09:06:34;96839.84;;;15.85;92.23
56944;BME280;42848;42.524;12.052;2023-04-27T09:09:01;96837.50;;;15.71;86.74
56944;BME280;42848;42.524;12.052;2023-04-27T09:11:38;96839.63;;;15.78;86.63
56944;BME280;42848;42.524;12.052;2023-04-27T09:14:18;96847.09;;;15.93;89.24
56944;BME280;42848;42.524;12.052;2023-04-27T09:16:44;96843.44;;;15.89;88.69
56944;BME280;42848;42.524;12.052;2023-04-27T09:19:10;96834.81;;;15.59;77.17
56944;BME280;42848;42.524;12.052;2023-04-27T09:21:36;96839.59;;;16.06;88.17
56944;BME280;42848;42.524;12.052;2023-04-27T09:24:12;96841.28;;;16.42;92.53
56944;BME280;42848;42.524;12.052;2023-04-27T09:26:38;96835.19;;;16.01;83.74
56944;BME280;42848;42.524;12.052;2023-04-27T09:29:07;96843.31;;;16.13;83.74
56944;BME280;42848;42.524;12.052;2023-04-27T09:31:34;96838.94;;;15.81;75.22
56944;BME280;42848;42.524;12.052;2023-04-27T09:34:00;96830.94;;;16.04;77.73
56944;BME280;42848;42.524;12.052;2023-04-27T09:36:26;96834.75;;;16.31;73.16
56944;BME280;42848;42.524;12.052;2023-04-27T09:38:52;96838.97;;;16.44;74.44
56944;BME280;42848;42.524;12.052;2023-04-27T09:41:19;96835.25;;;16.52;73.45
56944;BME280;42848;42.524;12.052;2023-04-27T09:43:46;96839.38;;;16.62;70.70
56944;BME280;42848;42.524;12.052;2023-04-27T09:46:12;96832.34;;;16.29;59.03
56944;BME280;42848;42.524;12.052;2023-04-27T09:48:39;96836.06;;;16.68;65.42
56944;BME280;42848;42.524;12.052;2023-04-27T09:51:05;96838.97;;;16.75;66.81
56944;BME280;42848;42.524;12.052;2023-04-27T09:53:51;96838.97;;;16.75;65.39
56944;BME280;42848;42.524;12.052;2023-04-27T09:56:49;96848.41;;;16.78;67.01
56944;BME280;42848;42.524;12.052;2023-04-27T10:01:59;96837.63;;;16.69;51.06
56944;BME280;42848;42.524;12.052;2023-04-27T10:07:18;96843.25;;;16.92;50.91
56944;BME280;42848;42.524;12.052;2023-04-27T10:09:46;96837.72;;;16.73;48.26
56944;BME280;42848;42.524;12.052;2023-04-27T10:12:26;96851.69;;;16.84;55.83
56944;BME280;42848;42.524;12.052;2023-04-27T10:14:56;96849.38;;;17.21;58.25
56944;BME280;42848;42.524;12.052;2023-04-27T10:17:32;96841.50;;;17.19;57.15
56944;BME280;42848;42.524;12.052;2023-04-27T10:20:06;96845.31;;;17.15;56.33
56944;BME280;42848;42.524;12.052;2023-04-27T10:22:51;96845.41;;;16.83;52.26
56944;BME280;42848;42.524;12.052;2023-04-27T10:27:51;96839.28;;;16.90;48.86
56944;BME280;42848;42.524;12.052;2023-04-27T10:30:18;96847.00;;;17.58;56.38
56944;BME280;42848;42.524;12.052;2023-04-27T10:32:52;96848.22;;;17.41;50.76
56944;BME280;42848;42.524;12.052;2023-04-27T10:35:19;96848.28;;;17.45;49.76
56944;BME280;42848;42.524;12.052;2023-04-27T10:37:47;96836.28;;;17.14;46.10
56944;BME280;42848;42.524;12.052;2023-04-27T10:40:14;96845.09;;;17.23;51.22
56944;BME280;42848;42.524;12.052;2023-04-27T10:42:43;96840.63;;;17.34;50.67
56944;BME280;42848;42.524;12.052;2023-04-27T10:45:10;96843.78;;;17.17;47.95
56944;BME280;42848;42.524;12.052;2023-04-27T10:47:41;96842.72;;;17.22;47.36
56944;BME280;42848;42.524;12.052;2023-04-27T10:50:08;96840.25;;;17.36;47.48
56944;BME280;42848;42.524;12.052;2023-04-27T10:52:42;96848.84;;;17.34;47.35
56944;BME280;42848;42.524;12.052;2023-04-27T10:55:19;96838.31;;;17.17;47.18
56944;BME280;42848;42.524;12.052;2023-04-27T10:57:53;96829.22;;;17.32;48.58
56944;BME280;42848;42.524;12.052;2023-04-27T11:02:48;96830.22;;;17.24;47.72
56944;BME280;42848;42.524;12.052;2023-04-27T11:05:21;96840.94;;;17.29;47.90
56944;BME280;42848;42.524;12.052;2023-04-27T11:07:50;96838.44;;;17.24;44.64
56944;BME280;42848;42.524;12.052;2023-04-27T11:10:19;96836.28;;;17.33;45.44
56944;BME280;42848;42.524;12.052;2023-04-27T11:12:46;96832.69;;;17.49;46.39
56944;BME280;42848;42.524;12.052;2023-04-27T11:15:12;96831.13;;;17.90;56.29
56944;BME280;42848;42.524;12.052;2023-04-27T11:17:39;96827.06;;;18.26;54.41
56944;BME280;42848;42.524;12.052;2023-04-27T11:20:05;96834.03;;;18.20;50.11
56944;BME280;42848;42.524;12.052;2023-04-27T11:22:33;96821.94;;;18.02;49.24
56944;BME280;42848;42.524;12.052;2023-04-27T11:25:00;96831.72;;;18.22;53.36
56944;BME280;42848;42.524;12.052;2023-04-27T11:27:38;96815.88;;;18.38;57.00
56944;BME280;42848;42.524;12.052;2023-04-27T11:30:05;96818.81;;;18.49;49.40
56944;BME280;42848;42.524;12.052;2023-04-27T11:32:32;96819.66;;;18.07;46.41
56944;BME280;42848;42.524;12.052;2023-04-27T11:34:58;96820.66;;;18.18;48.98
56944;BME280;42848;42.524;12.052;2023-04-27T11:37:25;96816.19;;;18.10;47.55
56944;BME280;42848;42.524;12.052;2023-04-27T11:39:53;96811.22;;;18.19;49.18
56944;BME280;42848;42.524;12.052;2023-04-27T11:42:24;96807.66;;;18.65;59.10
56944;BME280;42848;42.524;12.052;2023-04-27T11:44:55;96816.63;;;18.62;50.34
56944;BME280;42848;42.524;12.052;2023-04-27T11:47:22;96824.34;;;18.53;50.76
56944;BME280;42848;42.524;12.052;2023-04-27T11:49:51;96819.72;;;18.57;52.04
56944;BME280;42848;42.524;12.052;2023-04-27T11:52:19;96807.56;;;18.35;51.62
56944;BME280;42848;42.524;12.052;2023-04-27T11:54:52;96808.53;;;18.46;51.10
56944;BME280;42848;42.524;12.052;2023-04-27T11:57:28;96807.00;;;18.48;50.76
56944;BME280;42848;42.524;12.052;2023-04-27T11:59:55;96803.03;;;18.69;48.37
56944;BME280;42848;42.524;12.052;2023-04-27T12:02:22;96799.06;;;18.66;48.99
56944;BME280;42848;42.524;12.052;2023-04-27T12:04:48;96802.06;;;18.84;49.75
56944;BME280;42848;42.524;12.052;2023-04-27T12:07:15;96802.88;;;19.15;46.67
56944;BME280;42848;42.524;12.052;2023-04-27T12:09:41;96800.38;;;19.02;45.93
56944;BME280;42848;42.524;12.052;2023-04-27T12:12:08;96794.66;;;18.88;48.37
56944;BME280;42848;42.524;12.052;2023-04-27T12:14:34;96797.09;;;18.93;46.01
56944;BME280;42848;42.524;12.052;2023-04-27T12:16:59;96799.56;;;19.32;46.89
56944;BME280;42848;42.524;12.052;2023-04-27T12:19:25;96802.13;;;19.18;43.28
56944;BME280;42848;42.524;12.052;2023-04-27T12:21:51;96812.28;;;19.14;42.99
56944;BME280;42848;42.524;12.052;2023-04-27T12:24:18;96808.22;;;19.34;47.75
56944;BME280;42848;42.524;12.052;2023-04-27T12:26:44;96802.53;;;19.53;47.02
56944;BME280;42848;42.524;12.052;2023-04-27T12:29:11;96808.66;;;19.70;46.86
56944;BME280;42848;42.524;12.052;2023-04-27T12:31:37;96810.16;;;19.64;44.12
56944;BME280;42848;42.524;12.052;2023-04-27T12:34:03;96808.25;;;19.68;48.03
56944;BME280;42848;42.524;12.052;2023-04-27T12:36:28;96803.25;;;19.80;45.48
56944;BME280;42848;42.524;12.052;2023-04-27T12:38:59;96808.69;;;19.73;43.41
56944;BME280;42848;42.524;12.052;2023-04-27T12:41:36;96805.72;;;19.89;43.62
56944;BME280;42848;42.524;12.052;2023-04-27T12:44:01;96812.13;;;20.00;51.32
56944;BME280;42848;42.524;12.052;2023-04-27T12:46:27;96810.78;;;20.24;45.28
56944;BME280;42848;42.524;12.052;2023-04-27T12:48:53;96808.78;;;19.84;43.36
56944;BME280;42848;42.524;12.052;2023-04-27T12:51:21;96806.28;;;19.68;42.63
56944;BME280;42848;42.524;12.052;2023-04-27T12:53:47;96809.94;;;19.79;43.06